createdAt,value
2023-01-09T00:01:47.119Z,10.13
2023-01-09T00:04:15.662Z,10.12
2023-01-09T00:06:43.634Z,10.14
2023-01-09T00:09:12.867Z,10.10
2023-01-09T00:11:40.733Z,10.15
2023-01-09T00:14:10.918Z,10.11
2023-01-09T00:16:38.876Z,10.01
2023-01-09T00:19:06.716Z,10.21
2023-01-09T00:21:35.223Z,9.99
2023-01-09T00:24:03.107Z,10.16
2023-01-09T00:26:32.549Z,10.12
2023-01-09T00:29:00.307Z,10.13
2023-01-09T00:31:28.300Z,10.13
2023-01-09T00:34:00.414Z,10.10
2023-01-09T00:36:31.433Z,10.20
2023-01-09T00:38:59.876Z,10.29
2023-01-09T00:41:31.322Z,10.30
2023-01-09T00:44:10.666Z,10.32
2023-01-09T00:46:41.828Z,10.41
2023-01-09T00:49:11.058Z,10.17
2023-01-09T00:51:41.217Z,10.30
2023-01-09T00:54:12.792Z,10.34
2023-01-09T00:56:40.966Z,10.49
2023-01-09T00:59:10.623Z,10.46
2023-01-09T01:01:38.508Z,10.29
2023-01-09T01:04:20.232Z,10.44
2023-01-09T01:07:05.636Z,10.54
2023-01-09T01:09:33.382Z,10.44
2023-01-09T01:12:06.986Z,10.30
2023-01-09T01:14:36.870Z,10.63
2023-01-09T01:17:05.753Z,10.40
2023-01-09T01:19:34.909Z,10.38
2023-01-09T01:22:03.532Z,10.39
2023-01-09T01:24:31.834Z,10.34
2023-01-09T01:26:59.615Z,10.39
2023-01-09T01:29:27.528Z,10.39
2023-01-09T01:31:56.708Z,10.33
2023-01-09T01:34:24.618Z,10.56
2023-01-09T01:36:52.507Z,10.56
2023-01-09T01:39:20.298Z,10.51
2023-01-09T01:41:48.222Z,10.18
2023-01-09T01:44:53.518Z,10.25
2023-01-09T01:47:24.967Z,10.32
2023-01-09T01:49:53.749Z,10.30
2023-01-09T01:52:22.416Z,10.35
2023-01-09T01:54:50.427Z,10.36
2023-01-09T01:57:18.568Z,10.35
2023-01-09T01:59:51.058Z,10.55
2023-01-09T02:02:21.586Z,10.29
2023-01-09T02:04:53.307Z,10.28
2023-01-09T02:07:21.117Z,10.40
2023-01-09T02:09:49.882Z,10.48
2023-01-09T02:12:20.011Z,10.47
2023-01-09T02:14:49.310Z,10.45
2023-01-09T02:17:29.815Z,10.53
2023-01-09T02:20:34.368Z,10.31
2023-01-09T02:23:26.659Z,10.21
2023-01-09T02:26:19.475Z,10.30
2023-01-09T02:29:11.406Z,10.17
2023-01-09T02:31:48.295Z,10.02
2023-01-09T02:34:24.477Z,10.17
2023-01-09T02:37:02.189Z,10.17
2023-01-09T02:39:38.737Z,9.99
2023-01-09T02:42:13.964Z,9.97
2023-01-09T02:44:43.806Z,10.08
2023-01-09T02:47:38.463Z,10.12
2023-01-09T02:50:10.607Z,10.10
2023-01-09T02:52:53.476Z,10.03
2023-01-09T02:55:36.204Z,9.78
2023-01-09T02:58:11.237Z,9.75
2023-01-09T03:00:51.548Z,10.07
2023-01-09T03:03:25.239Z,9.87
2023-01-09T03:06:01.828Z,9.87
2023-01-09T03:08:36.216Z,9.98
2023-01-09T03:11:07.606Z,9.97
2023-01-09T03:13:40.997Z,9.78
2023-01-09T03:16:12.876Z,9.77
2023-01-09T03:18:43.503Z,9.78
2023-01-09T03:21:12.859Z,9.79
2023-01-09T03:23:48.955Z,9.80
2023-01-09T03:26:16.824Z,9.75
2023-01-09T03:28:45.475Z,9.61
2023-01-09T03:31:14.120Z,9.63
2023-01-09T03:33:43.915Z,9.61
2023-01-09T03:36:14.592Z,9.65
2023-01-09T03:38:45.558Z,9.64
2023-01-09T03:41:13.635Z,9.55
2023-01-09T03:43:41.670Z,9.54
2023-01-09T03:46:09.580Z,9.55
2023-01-09T03:48:37.331Z,9.70
2023-01-09T03:51:06.715Z,9.55
2023-01-09T03:53:34.727Z,9.51
2023-01-09T03:56:02.684Z,9.39
2023-01-09T03:58:30.520Z,9.48
2023-01-09T04:01:00.020Z,9.58
2023-01-09T04:03:27.983Z,9.40
2023-01-09T04:05:56.063Z,9.32
2023-01-09T04:08:25.211Z,9.39
2023-01-09T04:10:53.181Z,9.21
2023-01-09T04:13:21.261Z,9.55
2023-01-09T04:15:49.410Z,9.32
2023-01-09T04:18:17.711Z,9.38
2023-01-09T04:20:48.383Z,9.35
2023-01-09T04:23:16.362Z,9.37
2023-01-09T04:25:47.613Z,9.31
2023-01-09T04:28:15.461Z,9.23
2023-01-09T04:30:45.409Z,9.20
2023-01-09T04:33:13.153Z,9.44
2023-01-09T04:35:40.890Z,9.22
2023-01-09T04:38:08.661Z,9.45
2023-01-09T04:40:36.484Z,9.33
2023-01-09T04:43:05.603Z,9.39
2023-01-09T04:45:33.465Z,9.40
2023-01-09T04:48:01.251Z,9.49
2023-01-09T04:50:31.020Z,9.50
2023-01-09T04:52:59.658Z,9.23
2023-01-09T04:55:27.571Z,9.28
2023-01-09T04:57:55.273Z,9.26
2023-01-09T05:00:24.848Z,9.30
2023-01-09T05:02:52.735Z,9.23
2023-01-09T05:05:20.781Z,9.07
2023-01-09T05:07:48.598Z,9.12
2023-01-09T05:10:16.692Z,9.13
2023-01-09T05:12:44.460Z,9.11
2023-01-09T05:15:12.982Z,9.20
2023-01-09T05:17:42.193Z,9.03
2023-01-09T05:20:10.925Z,9.14
2023-01-09T05:22:38.628Z,8.98
2023-01-09T05:25:07.380Z,9.08
2023-01-09T05:27:35.203Z,9.14
2023-01-09T05:30:04.840Z,9.20
2023-01-09T05:32:32.735Z,9.10
2023-01-09T05:35:01.877Z,9.15
2023-01-09T05:37:30.715Z,9.01
2023-01-09T05:39:58.453Z,9.02
2023-01-09T05:42:26.747Z,9.02
2023-01-09T05:44:54.482Z,8.99
2023-01-09T05:47:22.336Z,9.22
2023-01-09T05:49:50.253Z,9.07
2023-01-09T05:52:19.411Z,9.10
2023-01-09T05:54:47.147Z,8.98
2023-01-09T05:57:14.970Z,8.99
2023-01-09T05:59:42.822Z,8.98
2023-01-09T06:02:10.800Z,9.18
2023-01-09T06:04:38.787Z,9.14
2023-01-09T06:07:06.689Z,8.92
2023-01-09T06:09:36.188Z,8.87
2023-01-09T06:12:04.160Z,8.92
2023-01-09T06:14:32.011Z,8.85
2023-01-09T06:17:00.267Z,8.70
2023-01-09T06:19:28.178Z,8.72
2023-01-09T06:21:55.928Z,8.70
2023-01-09T06:24:23.812Z,8.70
2023-01-09T06:26:52.905Z,8.65
2023-01-09T06:29:21.001Z,8.68
2023-01-09T06:31:48.815Z,8.71
2023-01-09T06:34:16.608Z,8.97
2023-01-09T06:36:44.384Z,8.78
2023-01-09T06:39:14.038Z,8.87
2023-01-09T06:41:41.846Z,8.96
2023-01-09T06:44:12.176Z,8.95
2023-01-09T06:46:43.007Z,8.93
2023-01-09T06:49:11.118Z,8.86
2023-01-09T06:51:39.063Z,9.19
2023-01-09T06:54:06.915Z,9.02
2023-01-09T06:56:34.743Z,9.22
2023-01-09T06:59:02.514Z,9.19
2023-01-09T07:01:31.714Z,9.20
2023-01-09T07:03:59.688Z,9.08
2023-01-09T07:06:27.997Z,9.16
2023-01-09T07:08:55.859Z,9.03
2023-01-09T07:11:23.703Z,9.06
2023-01-09T07:13:51.504Z,9.10
2023-01-09T07:16:19.359Z,9.13
2023-01-09T07:18:48.517Z,9.15
2023-01-09T07:21:16.675Z,9.09
2023-01-09T07:23:44.785Z,9.14
2023-01-09T07:26:12.550Z,9.07
2023-01-09T07:28:40.373Z,9.04
2023-01-09T07:31:08.402Z,9.30
2023-01-09T07:33:36.579Z,9.18
2023-01-09T07:36:07.492Z,9.14
2023-01-09T07:38:37.410Z,9.41
2023-01-09T07:41:05.449Z,9.46
2023-01-09T07:43:33.355Z,9.22
2023-01-09T07:46:03.480Z,8.97
2023-01-09T07:48:31.419Z,9.18
2023-01-09T07:50:59.238Z,9.02
2023-01-09T07:53:28.423Z,9.14
2023-01-09T07:55:56.245Z,9.12
2023-01-09T07:58:24.209Z,9.35
2023-01-09T08:00:52.177Z,9.20
2023-01-09T08:03:20.116Z,9.19
2023-01-09T08:05:49.779Z,9.29
2023-01-09T08:08:19.126Z,9.07
2023-01-09T08:10:48.318Z,9.07
2023-01-09T08:13:16.152Z,8.99
2023-01-09T08:15:44.009Z,9.13
2023-01-09T08:18:11.814Z,9.03
2023-01-09T08:20:39.689Z,9.22
2023-01-09T08:23:07.431Z,9.08
2023-01-09T08:25:35.196Z,9.11
2023-01-09T08:28:04.387Z,8.93
2023-01-09T08:30:32.238Z,9.35
2023-01-09T08:33:00.162Z,9.38
2023-01-09T08:35:27.956Z,9.28
2023-01-09T08:37:55.760Z,9.37
2023-01-09T08:40:23.762Z,9.17
2023-01-09T08:43:17.422Z,9.05
2023-01-09T08:46:04.291Z,9.08
2023-01-09T08:48:32.269Z,9.27
2023-01-09T08:51:00.065Z,9.15
2023-01-09T08:53:28.450Z,9.36
2023-01-09T08:55:56.330Z,9.23
2023-01-09T08:58:24.311Z,9.49
2023-01-09T09:00:53.551Z,9.49
2023-01-09T09:03:21.703Z,9.58
2023-01-09T09:05:49.530Z,9.50
2023-01-09T09:08:17.468Z,9.80
2023-01-09T09:10:45.595Z,9.44
2023-01-09T09:13:13.640Z,9.46
2023-01-09T09:15:41.484Z,9.53
2023-01-09T09:18:10.962Z,9.38
2023-01-09T09:20:40.041Z,9.29
2023-01-09T09:23:08.799Z,9.68
2023-01-09T09:25:38.288Z,9.75
2023-01-09T09:28:06.915Z,9.64
2023-01-09T09:30:35.062Z,9.69
2023-01-09T09:33:04.557Z,10.11
2023-01-09T09:35:34.895Z,9.98
2023-01-09T09:38:05.554Z,10.28
2023-01-09T09:41:05.632Z,9.92
2023-01-09T09:44:11.391Z,9.60
2023-01-09T09:46:45.887Z,9.32
2023-01-09T09:49:19.448Z,9.40
2023-01-09T09:52:09.397Z,9.48
2023-01-09T09:54:42.247Z,9.12
2023-01-09T09:57:16.665Z,9.27
2023-01-09T09:59:48.219Z,9.27
2023-01-09T10:02:27.055Z,9.06
2023-01-09T10:05:01.429Z,9.33
2023-01-09T10:07:38.871Z,9.31
2023-01-09T10:10:15.741Z,9.54
2023-01-09T10:12:52.477Z,9.25
2023-01-09T10:15:27.877Z,9.55
2023-01-09T10:18:08.978Z,9.47
2023-01-09T10:20:55.313Z,9.32
2023-01-09T10:23:44.312Z,9.35
2023-01-09T10:26:17.826Z,9.23
2023-01-09T10:29:05.785Z,9.30
2023-01-09T10:31:45.177Z,9.24
2023-01-09T10:34:24.843Z,9.26
2023-01-09T10:37:03.055Z,9.27
2023-01-09T10:39:38.331Z,9.03
2023-01-09T10:42:12.899Z,9.07
2023-01-09T10:44:49.013Z,9.15
2023-01-09T10:47:22.964Z,9.21
2023-01-09T10:49:53.122Z,9.11
2023-01-09T10:52:34.981Z,9.32
2023-01-09T10:55:16.788Z,9.18
2023-01-09T10:57:46.710Z,9.36
2023-01-09T11:00:18.669Z,9.10
2023-01-09T11:02:46.582Z,9.36
2023-01-09T11:05:18.759Z,9.16
2023-01-09T11:07:50.935Z,9.12
2023-01-09T11:10:22.972Z,9.22
2023-01-09T11:12:51.019Z,9.63
2023-01-09T11:15:29.036Z,9.70
2023-01-09T11:18:18.993Z,9.68
2023-01-09T11:20:46.944Z,9.82
2023-01-09T11:23:32.886Z,10.06
2023-01-09T11:26:03.917Z,9.89
2023-01-09T11:28:31.873Z,10.25
2023-01-09T11:31:01.398Z,10.09
2023-01-09T11:33:31.455Z,10.39
2023-01-09T11:36:05.072Z,10.65
2023-01-09T11:38:45.576Z,10.31
2023-01-09T11:41:19.918Z,10.20
2023-01-09T11:43:49.953Z,10.68
2023-01-09T11:46:39.493Z,11.10
2023-01-09T11:49:23.297Z,10.71
2023-01-09T11:52:14.781Z,10.54
2023-01-09T11:54:46.805Z,10.53
2023-01-09T11:57:16.725Z,10.77
2023-01-09T11:59:44.838Z,10.51
2023-01-09T12:02:53.571Z,11.05
2023-01-09T12:05:36.835Z,10.77
2023-01-09T12:08:24.251Z,10.61
2023-01-09T12:11:18.723Z,10.61
2023-01-09T12:13:59.610Z,10.68
2023-01-09T12:16:35.962Z,10.80
2023-01-09T12:19:17.271Z,10.62
2023-01-09T12:21:52.473Z,10.67
2023-01-09T12:24:40.804Z,10.69
2023-01-09T12:27:25.208Z,10.54
2023-01-09T12:30:19.363Z,10.67
2023-01-09T12:33:05.999Z,10.11
2023-01-09T12:35:41.346Z,9.79
2023-01-09T12:38:37.960Z,10.40
2023-01-09T12:41:35.763Z,10.39
2023-01-09T12:44:30.766Z,10.19
2023-01-09T12:47:20.032Z,10.43
2023-01-09T12:49:56.045Z,10.47
2023-01-09T12:52:27.286Z,10.11
2023-01-09T12:55:00.911Z,10.32
2023-01-09T12:57:33.761Z,10.67
2023-01-09T13:00:05.797Z,10.33
2023-01-09T13:02:41.973Z,10.36
2023-01-09T13:05:17.422Z,10.28
2023-01-09T13:07:50.973Z,10.29
2023-01-09T13:10:24.321Z,10.29
2023-01-09T13:12:54.791Z,10.52
2023-01-09T13:15:31.745Z,10.61
2023-01-09T13:18:08.495Z,10.86
2023-01-09T13:20:43.303Z,10.26
2023-01-09T13:23:18.902Z,10.01
2023-01-09T13:25:49.679Z,10.41
2023-01-09T13:28:21.943Z,10.36
2023-01-09T13:31:03.181Z,10.13
2023-01-09T13:33:35.997Z,10.20
2023-01-09T13:36:04.936Z,10.17
2023-01-09T13:38:35.208Z,10.00
2023-01-09T13:41:32.471Z,10.15
2023-01-09T13:44:03.820Z,10.44
2023-01-09T13:46:38.346Z,10.21
2023-01-09T13:49:08.814Z,10.18
2023-01-09T13:51:59.884Z,10.39
2023-01-09T13:55:00.828Z,10.25
2023-01-09T13:57:31.759Z,10.36
2023-01-09T14:00:37.969Z,10.25
2023-01-09T14:03:16.947Z,10.40
2023-01-09T14:06:13.122Z,10.63
2023-01-09T14:08:43.100Z,10.56
2023-01-09T14:11:19.827Z,10.34
2023-01-09T14:13:53.259Z,10.46
2023-01-09T14:16:24.720Z,10.49
2023-01-09T14:18:57.425Z,10.68
2023-01-09T14:21:27.252Z,10.27
2023-01-09T14:24:04.390Z,10.31
2023-01-09T14:26:45.871Z,10.35
2023-01-09T14:29:40.045Z,10.50
2023-01-09T14:32:43.305Z,10.04
2023-01-09T14:35:19.034Z,10.27
2023-01-09T14:37:59.432Z,10.24
2023-01-09T14:40:27.403Z,10.01
2023-01-09T14:43:00.585Z,9.90
2023-01-09T14:45:29.204Z,10.01
2023-01-09T14:48:01.690Z,10.09
2023-01-09T14:50:34.432Z,10.15
2023-01-09T14:53:06.757Z,9.97
2023-01-09T14:55:44.480Z,9.79
2023-01-09T14:58:13.716Z,9.86
2023-01-09T15:00:50.100Z,9.67
2023-01-09T15:03:18.438Z,9.60
2023-01-09T15:05:48.008Z,9.72
2023-01-09T15:08:21.706Z,9.71
2023-01-09T15:10:52.043Z,9.46
2023-01-09T15:13:29.195Z,9.60
2023-01-09T15:15:57.175Z,9.70
2023-01-09T15:18:27.245Z,9.73
2023-01-09T15:20:59.356Z,9.79
2023-01-09T15:23:30.346Z,9.74
2023-01-09T15:26:12.740Z,9.66
2023-01-09T15:28:43.705Z,9.97
2023-01-09T15:31:16.365Z,9.78
2023-01-09T15:33:46.803Z,9.51
2023-01-09T15:36:18.547Z,9.63
2023-01-09T15:38:49.487Z,9.46
2023-01-09T15:41:40.596Z,9.59
2023-01-09T15:44:15.363Z,9.70
2023-01-09T15:46:46.321Z,9.62
2023-01-09T15:49:15.376Z,9.56
2023-01-09T15:51:45.454Z,9.52
2023-01-09T15:54:18.185Z,9.35
2023-01-09T15:56:46.957Z,9.25
2023-01-09T15:59:25.090Z,9.32
2023-01-09T16:02:19.633Z,9.42
2023-01-09T16:04:48.535Z,9.36
2023-01-09T16:07:19.657Z,9.35
2023-01-09T16:09:52.666Z,9.28
2023-01-09T16:12:23.708Z,9.34
2023-01-09T16:14:53.793Z,9.37
2023-01-09T16:17:26.392Z,9.44
2023-01-09T16:19:58.099Z,9.53
2023-01-09T16:22:28.330Z,9.47
2023-01-09T16:24:59.494Z,9.43
2023-01-09T16:27:30.275Z,9.37
2023-01-09T16:29:59.546Z,9.54
2023-01-09T16:32:30.509Z,9.20
2023-01-09T16:35:00.493Z,9.25
2023-01-09T16:37:29.091Z,9.35
2023-01-09T16:40:26.887Z,9.15
2023-01-09T16:43:05.419Z,9.19
2023-01-09T16:45:36.253Z,9.35
2023-01-09T16:48:11.278Z,9.35
2023-01-09T16:50:40.234Z,9.22
2023-01-09T16:53:15.393Z,9.24
2023-01-09T16:55:44.940Z,9.40
2023-01-09T16:58:18.411Z,9.45
2023-01-09T17:00:48.144Z,9.44
2023-01-09T17:03:17.096Z,9.20
2023-01-09T17:05:45.401Z,9.23
2023-01-09T17:08:21.849Z,9.28
2023-01-09T17:10:51.646Z,9.15
2023-01-09T17:13:19.569Z,9.15
2023-01-09T17:15:47.800Z,9.03
2023-01-09T17:18:16.644Z,9.16
2023-01-09T17:20:47.325Z,9.02
2023-01-09T17:23:15.885Z,9.12
2023-01-09T17:26:02.042Z,9.00
2023-01-09T17:28:34.604Z,8.96
2023-01-09T17:31:05.861Z,9.03
2023-01-09T17:33:34.638Z,8.93
2023-01-09T17:36:03.981Z,8.95
2023-01-09T17:38:31.821Z,8.90
2023-01-09T17:40:59.755Z,8.95
2023-01-09T17:43:27.570Z,8.96
2023-01-09T17:45:57.154Z,9.03
2023-01-09T17:48:25.256Z,8.80
2023-01-09T17:50:53.184Z,8.78
2023-01-09T17:53:22.719Z,8.70
2023-01-09T17:55:50.706Z,8.89
2023-01-09T17:58:25.882Z,8.97
2023-01-09T18:00:53.965Z,8.74
2023-01-09T18:03:25.849Z,8.72
2023-01-09T18:05:53.926Z,8.95
2023-01-09T18:08:21.752Z,8.95
2023-01-09T18:10:50.569Z,8.60
2023-01-09T18:13:18.719Z,8.90
2023-01-09T18:15:47.691Z,8.85
2023-01-09T18:18:16.192Z,8.75
2023-01-09T18:20:47.788Z,8.93
2023-01-09T18:23:16.938Z,9.05
2023-01-09T18:25:45.291Z,8.93
2023-01-09T18:28:15.440Z,8.92
2023-01-09T18:30:45.426Z,9.12
2023-01-09T18:33:14.039Z,9.09
2023-01-09T18:35:42.223Z,8.96
2023-01-09T18:38:12.211Z,8.91
2023-01-09T18:40:41.592Z,9.15
2023-01-09T18:43:11.339Z,9.05
2023-01-09T18:45:39.926Z,8.98
2023-01-09T18:48:09.506Z,9.05
2023-01-09T18:50:37.374Z,8.97
2023-01-09T18:53:06.240Z,8.98
2023-01-09T18:55:37.473Z,9.01
2023-01-09T18:58:06.255Z,8.96
2023-01-09T19:00:34.904Z,8.83
2023-01-09T19:03:02.750Z,8.74
2023-01-09T19:05:33.052Z,8.99
2023-01-09T19:08:00.860Z,8.77
2023-01-09T19:10:28.661Z,8.90
2023-01-09T19:12:59.026Z,8.82
2023-01-09T19:15:29.149Z,8.62
2023-01-09T19:17:58.364Z,8.74
2023-01-09T19:20:26.290Z,8.57
2023-01-09T19:22:56.634Z,8.55
2023-01-09T19:25:24.552Z,8.69
2023-01-09T19:27:53.400Z,8.54
2023-01-09T19:30:22.851Z,8.55
2023-01-09T19:32:50.705Z,8.60
2023-01-09T19:35:18.556Z,8.43
2023-01-09T19:37:46.371Z,8.43
2023-01-09T19:40:14.706Z,8.42
2023-01-09T19:42:42.536Z,8.37
2023-01-09T19:45:11.115Z,8.30
2023-01-09T19:47:40.334Z,8.26
2023-01-09T19:50:09.323Z,8.17
2023-01-09T19:52:37.518Z,8.10
2023-01-09T19:55:06.025Z,8.09
2023-01-09T19:57:33.788Z,8.22
2023-01-09T20:00:01.574Z,8.29
2023-01-09T20:02:29.564Z,8.16
2023-01-09T20:04:58.671Z,8.29
2023-01-09T20:07:26.595Z,8.27
2023-01-09T20:09:54.431Z,8.17
2023-01-09T20:12:22.369Z,8.35
2023-01-09T20:14:50.292Z,8.51
2023-01-09T20:17:19.639Z,8.25
2023-01-09T20:19:47.645Z,8.29
2023-01-09T20:22:16.768Z,8.20
2023-01-09T20:24:44.585Z,8.08
2023-01-09T20:27:12.373Z,8.08
2023-01-09T20:29:40.240Z,8.13
2023-01-09T20:32:09.811Z,8.02
2023-01-09T20:34:37.689Z,8.01
2023-01-09T20:37:05.646Z,7.97
2023-01-09T20:39:34.908Z,7.88
2023-01-09T20:42:02.759Z,7.81
2023-01-09T20:44:30.835Z,7.71
2023-01-09T20:46:58.999Z,7.60
2023-01-09T20:49:26.816Z,7.68
2023-01-09T20:51:54.632Z,7.52
2023-01-09T20:54:23.188Z,7.66
2023-01-09T20:56:53.507Z,7.59
2023-01-09T20:59:22.074Z,7.59
2023-01-09T21:01:50.489Z,7.69
2023-01-09T21:04:21.135Z,7.48
2023-01-09T21:06:50.203Z,7.49
2023-01-09T21:09:18.876Z,7.62
2023-01-09T21:11:46.819Z,7.62
2023-01-09T21:14:16.084Z,7.67
2023-01-09T21:16:47.924Z,7.75
2023-01-09T21:19:21.659Z,7.42
2023-01-09T21:21:51.605Z,7.74
2023-01-09T21:24:20.827Z,7.64
2023-01-09T21:26:48.638Z,7.65
2023-01-09T21:29:17.846Z,7.48
2023-01-09T21:31:45.814Z,7.67
2023-01-09T21:34:14.832Z,7.72
2023-01-09T21:36:44.792Z,7.75
2023-01-09T21:39:12.648Z,7.95
2023-01-09T21:41:57.989Z,7.80
2023-01-09T21:44:45.082Z,7.91
2023-01-09T21:47:14.027Z,7.91
2023-01-09T21:49:43.687Z,7.78
2023-01-09T21:52:12.833Z,7.78
2023-01-09T21:54:41.505Z,7.90
2023-01-09T21:57:09.425Z,8.00
2023-01-09T21:59:38.845Z,7.92
2023-01-09T22:02:06.909Z,7.85
2023-01-09T22:04:34.687Z,8.06
2023-01-09T22:07:02.626Z,7.72
2023-01-09T22:09:30.452Z,7.67
2023-01-09T22:11:58.553Z,7.85
2023-01-09T22:14:29.593Z,7.62
2023-01-09T22:16:58.961Z,7.72
2023-01-09T22:19:29.394Z,7.64
2023-01-09T22:21:57.575Z,7.71
2023-01-09T22:24:25.660Z,7.52
2023-01-09T22:26:56.132Z,7.46
2023-01-09T22:29:24.803Z,7.61
2023-01-09T22:31:53.325Z,7.40
2023-01-09T22:34:22.706Z,7.37
2023-01-09T22:36:50.574Z,7.37
2023-01-09T22:39:21.112Z,7.44
2023-01-09T22:41:52.392Z,7.40
2023-01-09T22:44:20.697Z,7.46
2023-01-09T22:46:48.618Z,7.45
2023-01-09T22:49:16.981Z,7.29
2023-01-09T22:51:46.509Z,7.31
2023-01-09T22:54:14.451Z,7.33
2023-01-09T22:56:42.489Z,7.28
2023-01-09T22:59:10.431Z,7.24
2023-01-09T23:01:38.661Z,7.45
2023-01-09T23:04:06.962Z,7.34
2023-01-09T23:06:35.005Z,7.50
2023-01-09T23:09:04.461Z,7.41
2023-01-09T23:11:50.182Z,7.75
2023-01-09T23:14:19.112Z,7.57
2023-01-09T23:16:47.177Z,7.44
2023-01-09T23:19:15.680Z,7.40
2023-01-09T23:21:44.605Z,7.52
2023-01-09T23:24:19.163Z,7.66
2023-01-09T23:26:47.640Z,7.60
2023-01-09T23:29:16.036Z,7.80
2023-01-09T23:31:43.998Z,7.69
2023-01-09T23:34:15.554Z,7.89
2023-01-09T23:36:43.567Z,7.75
2023-01-09T23:39:12.121Z,7.89
2023-01-09T23:41:59.789Z,7.79
2023-01-09T23:44:27.754Z,7.78
2023-01-09T23:46:55.652Z,7.63
2023-01-09T23:49:24.543Z,7.56
2023-01-09T23:51:55.294Z,7.48
2023-01-09T23:54:23.090Z,7.45
2023-01-09T23:56:53.445Z,7.40
2023-01-09T23:59:21.367Z,7.32
